METAR AND TAF INFORMATION
METAR FOR KIND
ADDS - METARS form results

(2307 UTC 22 May 2018)
Data provider http://aviationweather.gov/adds/metars/
 
METAR text: KIND 222254Z 30012KT 10SM FEW050 FEW070 SCT250 28/14 A2997 RMK AO2 SLP143 T02780139
Conditions at: KIND (INDIANAPOLIS , IN, US) observed 2254 UTC 22 May 2018
Temperature: 27.8°C (82°F)
Dewpoint: 13.9°C (57°F) [RH = 43%]
Pressure (altimeter): 29.97 inches Hg (1015.0 mb)
[Sea-level pressure: 1014.3 mb]
Winds: from the WNW (300 degrees) at 14 MPH (12 knots; 6.2 m/s)
Visibility: 10 or more miles (16+ km)
Ceiling: at least 12,000 feet AGL
Clouds: few clouds at 5000 feet AGL
few clouds at 7000 feet AGL
scattered clouds at 25000 feet AGL
Weather: no significant weather observed at this time

Forecast for: KIND (INDIANAPOLIS , IN, US)
Text: KIND 222006Z 2220/2324 29014KT P6SM SCT045 BKN070
Forecast period: 2000 to 2200 UTC 22 May 2018
Forecast type: FROM: standard forecast or significant change
Winds: from the WNW (290 degrees) at 16 MPH (14 knots; 7.3 m/s)
Visibility: 6 or more miles (10+ km)
Ceiling: 7000 feet AGL
Clouds: scattered clouds at 4500 feet AGL
broken clouds at 7000 feet AGL
Weather: no significant weather forecast for this period
Forecast for: KIND (INDIANAPOLIS , IN, US)
Text: KIND 222006Z 2220/2324 29014KT P6SM SCT045 BKN070
Forecast period: 2000 to 2200 UTC 22 May 2018
Forecast type: FROM: standard forecast or significant change
Winds: from the WNW (290 degrees) at 16 MPH (14 knots; 7.3 m/s)
Visibility: 6 or more miles (10+ km)
Ceiling: 7000 feet AGL
Clouds: scattered clouds at 4500 feet AGL
broken clouds at 7000 feet AGL
Weather: no significant weather forecast for this period
Forecast for: KIND (INDIANAPOLIS , IN, US)
Text: KIND 222006Z 2220/2324 29014KT P6SM SCT045 BKN070
Forecast period: 2200 UTC 22 May 2018 to 0000 UTC 23 May 2018
Forecast type: FROM: standard forecast or significant change
Winds: from the NW (310 degrees) at 10 MPH (9 knots; 4.7 m/s)
Visibility: 6 or more miles (10+ km)
Clouds: scattered clouds at 11000 feet AGL
Weather: no significant weather forecast for this period
Forecast for: KIND (INDIANAPOLIS , IN, US)
Text: KIND 222006Z 2220/2324 29014KT P6SM SCT045 BKN070
Forecast period: 2200 UTC 22 May 2018 to 0000 UTC 23 May 2018
Forecast type: FROM: standard forecast or significant change
Winds: from the NW (310 degrees) at 10 MPH (9 knots; 4.7 m/s)
Visibility: 6 or more miles (10+ km)
Clouds: scattered clouds at 11000 feet AGL
Weather: no significant weather forecast for this period
Forecast for: KIND (INDIANAPOLIS , IN, US)
Text: KIND 222006Z 2220/2324 29014KT P6SM SCT045 BKN070
Forecast period: 0000 UTC 23 May 2018 to 0000 UTC 24 May 2018
Forecast type: FROM: standard forecast or significant change
Winds: from the NNW (340 degrees) at 9 MPH (8 knots; 4.2 m/s)
Visibility: 6 or more miles (10+ km)
Clouds: scattered clouds at 15000 feet AGL
Weather: no significant weather forecast for this period
Forecast for: KIND (INDIANAPOLIS , IN, US)
Text: KIND 222006Z 2220/2324 29014KT P6SM SCT045 BKN070
Forecast period: 0000 UTC 23 May 2018 to 0000 UTC 24 May 2018
Forecast type: FROM: standard forecast or significant change
Winds: from the NNW (340 degrees) at 9 MPH (8 knots; 4.2 m/s)
Visibility: 6 or more miles (10+ km)
Clouds: scattered clouds at 15000 feet AGL
Weather: no significant weather forecast for this period

 AIRPORT MAP

 RUNWAY INFORMATION
Runway 05L Runway length 11200 ft Runway width 150 ft
Runway elevation 738 ft Runway displaced threshold 0 ft Runway heading 45
Runway 23R Runway length 11200 ft Runway width 150 ft
Runway elevation 783 ft Runway displaced threshold 0 ft Runway heading 225
Runway 05R Runway length 10000 ft Runway width 150 ft
Runway elevation 789 ft Runway displaced threshold 0 ft Runway heading 45
Runway 23L Runway length 10000 ft Runway width 150 ft
Runway elevation 788 ft Runway displaced threshold 0 ft Runway heading 225
Runway 14 Runway length 7605 ft Runway width 150 ft
Runway elevation 788 ft Runway displaced threshold 0 ft Runway heading 135
Runway 32 Runway length 7605 ft Runway width 150 ft
Runway elevation 781 ft Runway displaced threshold 0 ft Runway heading 315

 AIRPORT FREQUENCIES
Type APP Name APP Frequency 119.3 MHZ
Type ATIS Name ATIS Frequency 134.25 MHZ
Type CLD Name CLNC DEL Frequency 128.75 MHZ
Type DEP Name DEP Frequency 119.05 MHZ
Type GND Name GND Frequency 121.8 MHZ
Type RDO Name TERRE HAUT Frequency 122.55 MHZ
Type TWR Name INDY TWR Frequency 120.9 MHZ
Type UNIC Name UNICOM Frequency 122.95 MHZ

 AIRPORT NEAR NAVIGATION AIDS
Type NDB Name Colfa Frequency 232 KHZ



Powered by Virtual Airlines Manager [v2.6.2]